Time;durP1;ratioP1;P1;durP2;ratioP2;P2;SDS_P1;SDS_P2;PMS_P1;PMS_P2;Temp;Humidity;BMP_temperature;BMP_pressure;BME280_temperature;BME280_humidity;BME280_pressure;Samples;Min_cycle;Max_cycle;Signal;HPM_P1;HPM_P2
2021/12/14 00:03:49;;;;;;;8.20;3.15;;;8.90;99.90;;;;;;10313924;28;84216;-47
2021/12/14 00:08:53;;;;;;;5.97;2.83;;;8.90;99.90;;;;;;10323458;28;84932;-48
2021/12/14 00:14:10;;;;;;;6.03;2.95;;;8.90;99.90;;;;;;10318995;28;84917;-46
2021/12/14 00:19:11;;;;;;;5.25;2.85;;;8.90;99.90;;;;;;10296913;28;84949;-51
2021/12/14 00:24:14;;;;;;;5.88;2.78;;;8.90;99.90;;;;;;10331772;28;84090;-45
2021/12/14 00:29:32;;;;;;;4.57;2.67;;;8.90;99.90;;;;;;10330845;28;84255;-46
2021/12/14 00:34:42;;;;;;;6.30;3.25;;;8.90;99.90;;;;;;10323054;28;87361;-45
2021/12/14 00:39:44;;;;;;;5.85;2.95;;;9.00;99.90;;;;;;10328495;28;84261;-46
2021/12/14 00:44:45;;;;;;;4.95;2.78;;;9.00;99.90;;;;;;10300469;28;85070;-46
2021/12/14 00:49:47;;;;;;;6.80;2.75;;;9.00;99.90;;;;;;10304057;28;86067;-47
2021/12/14 00:54:48;;;;;;;5.22;2.70;;;9.00;99.90;;;;;;10288461;28;85106;-46
2021/12/14 00:59:49;;;;;;;6.07;3.20;;;9.00;99.90;;;;;;10287286;28;86679;-48
2021/12/14 01:04:58;;;;;;;5.38;2.55;;;9.00;99.90;;;;;;10287613;28;85779;-45
2021/12/14 01:10:07;;;;;;;5.10;2.95;;;9.10;99.90;;;;;;10325030;28;86725;-46
2021/12/14 01:15:26;;;;;;;10.68;3.95;;;9.10;99.90;;;;;;10320546;28;86056;-46
2021/12/14 01:20:35;;;;;;;6.85;3.60;;;9.00;99.90;;;;;;10329081;28;84773;-48
2021/12/14 01:25:38;;;;;;;8.75;3.55;;;9.00;99.90;;;;;;10327465;28;87248;-46
2021/12/14 01:30:55;;;;;;;5.97;3.58;;;9.00;99.90;;;;;;10326974;28;87055;-48
2021/12/14 01:35:56;;;;;;;6.38;3.28;;;8.90;99.90;;;;;;10326415;28;86105;-46
2021/12/14 01:41:03;;;;;;;6.22;3.30;;;8.80;99.90;;;;;;10327256;28;86011;-45
2021/12/14 01:46:24;;;;;;;5.72;4.03;;;8.90;99.90;;;;;;10323272;28;86943;-47
2021/12/14 01:51:31;;;;;;;6.28;3.15;;;8.90;99.90;;;;;;10285719;28;85642;-49
2021/12/14 01:56:35;;;;;;;5.70;3.08;;;8.90;99.90;;;;;;10285323;28;86135;-47
2021/12/14 02:01:54;;;;;;;6.57;3.47;;;8.80;99.90;;;;;;10286244;28;87187;-47
2021/12/14 02:07:00;;;;;;;6.03;2.97;;;8.90;99.90;;;;;;10288748;22;85957;-48
2021/12/14 02:12:12;;;;;;;6.28;2.92;;;8.90;99.90;;;;;;10367678;28;86015;-47
2021/12/14 02:17:16;;;;;;;5.80;3.40;;;8.80;99.90;;;;;;10374291;28;87060;-47
2021/12/14 02:22:17;;;;;;;6.22;3.35;;;8.80;99.90;;;;;;10409472;28;86836;-46
2021/12/14 02:27:19;;;;;;;5.43;3.40;;;8.70;99.90;;;;;;10408958;28;85633;-46
2021/12/14 02:32:25;;;;;;;6.57;3.70;;;8.70;99.90;;;;;;10409268;28;86891;-46
2021/12/14 02:37:40;;;;;;;5.60;3.13;;;8.70;99.90;;;;;;10410182;28;84844;-50
2021/12/14 02:42:41;;;;;;;7.35;3.97;;;8.60;99.90;;;;;;10410207;28;84795;-46
2021/12/14 02:47:42;;;;;;;7.18;3.08;;;8.70;99.90;;;;;;10408251;28;86148;-50
2021/12/14 02:52:43;;;;;;;8.32;3.03;;;8.60;99.90;;;;;;10409466;28;84024;-49
2021/12/14 02:57:49;;;;;;;7.93;3.60;;;8.70;99.90;;;;;;10407980;28;85994;-47
2021/12/14 03:02:49;;;;;;;6.25;3.28;;;8.90;99.90;;;;;;10407812;28;86943;-48
2021/12/14 03:08:21;;;;;;;6.55;3.53;;;8.80;99.90;;;;;;10390849;28;86894;-46
2021/12/14 03:13:30;;;;;;;7.90;3.65;;;8.80;99.90;;;;;;10402185;28;86623;-49
2021/12/14 03:18:36;;;;;;;6.95;3.75;;;8.60;99.90;;;;;;10407244;28;86015;-47
2021/12/14 03:23:42;;;;;;;5.68;3.40;;;8.60;99.90;;;;;;10407684;28;86094;-48
2021/12/14 03:28:49;;;;;;;5.60;3.38;;;8.70;99.90;;;;;;10409755;28;84431;-47
2021/12/14 03:34:08;;;;;;;4.80;3.28;;;8.70;99.90;;;;;;10407290;28;85961;-45
2021/12/14 03:39:20;;;;;;;6.85;3.47;;;8.70;99.90;;;;;;10407444;28;87051;-47
2021/12/14 03:44:34;;;;;;;6.82;3.20;;;8.70;99.90;;;;;;10408535;28;85965;-52
2021/12/14 03:49:43;;;;;;;6.13;3.20;;;8.70;99.90;;;;;;10407422;28;85849;-46
2021/12/14 03:54:45;;;;;;;5.30;3.38;;;8.80;99.90;;;;;;10407393;28;86993;-51
2021/12/14 03:59:46;;;;;;;5.85;3.17;;;8.90;99.90;;;;;;10406768;28;86675;-46
2021/12/14 04:05:05;;;;;;;5.88;3.40;;;8.90;99.90;;;;;;10406871;28;86003;-48
2021/12/14 04:10:12;;;;;;;5.78;3.50;;;8.90;99.90;;;;;;10407249;28;84788;-47
2021/12/14 04:15:13;;;;;;;5.68;3.40;;;8.80;99.90;;;;;;10408091;28;86885;-52
2021/12/14 04:20:36;;;;;;;6.13;3.47;;;8.70;99.90;;;;;;10415483;28;85860;-46
2021/12/14 04:25:38;;;;;;;6.07;3.17;;;8.60;99.90;;;;;;10396766;28;85968;-46
2021/12/14 04:30:40;;;;;;;7.35;3.63;;;8.60;99.90;;;;;;10413018;28;85957;-47
2021/12/14 04:35:45;;;;;;;5.95;3.40;;;8.70;99.90;;;;;;10413391;28;86130;-46
2021/12/14 04:56:50;;;;;;;4.97;3.60;;;8.70;99.90;;;;;;10413062;28;85896;-48
2021/12/14 05:01:56;;;;;;;7.55;3.80;;;8.80;99.90;;;;;;10412838;28;85711;-46
2021/12/14 05:07:32;;;;;;;8.70;4.38;;;8.80;99.90;;;;;;10412310;28;85986;-47
2021/12/14 05:12:37;;;;;;;6.97;4.13;;;8.80;99.90;;;;;;10387927;28;85972;-46
2021/12/14 05:17:46;;;;;;;8.23;4.07;;;8.70;99.90;;;;;;10400827;28;85931;-47
2021/12/14 05:22:48;;;;;;;8.05;4.72;;;8.70;99.90;;;;;;10411655;28;85980;-46
2021/12/14 05:27:57;;;;;;;9.50;5.07;;;8.70;99.90;;;;;;10407951;28;86861;-47
2021/12/14 05:33:08;;;;;;;7.65;3.97;;;8.70;99.90;;;;;;10399165;28;86791;-46
2021/12/14 05:38:13;;;;;;;10.20;5.18;;;8.70;99.90;;;;;;10395441;28;84817;-49
2021/12/14 05:43:18;;;;;;;7.57;4.47;;;8.60;99.90;;;;;;10408186;28;85214;-51
2021/12/14 05:48:37;;;;;;;8.55;4.60;;;8.60;99.90;;;;;;10390593;28;87069;-47
2021/12/14 05:53:41;;;;;;;9.98;4.70;;;8.70;99.90;;;;;;10403922;28;84958;-47
2021/12/14 05:58:43;;;;;;;9.25;5.35;;;8.60;99.90;;;;;;10399873;28;84273;-47
2021/12/14 06:03:59;;;;;;;10.25;5.28;;;8.70;99.90;;;;;;10410501;28;84516;-49
2021/12/14 06:09:13;;;;;;;9.23;5.38;;;8.70;99.90;;;;;;10407893;28;86718;-47
2021/12/14 06:14:25;;;;;;;9.60;6.07;;;8.60;99.90;;;;;;10401600;28;86009;-47
2021/12/14 06:19:38;;;;;;;10.07;5.18;;;8.70;99.90;;;;;;10399759;28;86015;-51
2021/12/14 06:24:43;;;;;;;8.48;5.30;;;8.70;99.90;;;;;;10385452;28;85971;-47
2021/12/14 06:29:50;;;;;;;12.73;6.07;;;8.60;99.90;;;;;;10410262;28;87010;-47
2021/12/14 06:34:55;;;;;;;10.25;5.93;;;8.50;99.90;;;;;;10413033;28;86031;-49
2021/12/14 06:40:28;;;;;;;9.27;5.78;;;8.70;99.90;;;;;;10406277;28;85884;-46
2021/12/14 06:45:55;;;;;;;13.23;6.68;;;8.80;99.90;;;;;;10402075;28;87076;-44
2021/12/14 06:51:05;;;;;;;12.60;6.78;;;8.80;99.90;;;;;;10405538;28;85692;-48
2021/12/14 06:56:21;;;;;;;13.52;5.97;;;8.60;99.90;;;;;;10399373;28;86051;-50
2021/12/14 07:01:51;;;;;;;11.77;7.20;;;8.70;99.90;;;;;;10399830;28;84451;-50
2021/12/14 07:06:55;;;;;;;10.20;5.85;;;8.70;99.90;;;;;;10395185;28;84248;-50
2021/12/14 07:11:59;;;;;;;11.35;6.25;;;8.70;99.90;;;;;;10407205;28;85984;-52
2021/12/14 07:17:18;;;;;;;12.30;6.55;;;8.70;99.90;;;;;;10403676;28;86833;-48
2021/12/14 07:22:26;;;;;;;12.82;7.63;;;8.60;99.90;;;;;;10397875;28;84221;-49
2021/12/14 07:27:38;;;;;;;13.75;6.97;;;8.60;99.90;;;;;;10407220;27;84368;-47
2021/12/14 07:32:42;;;;;;;13.85;7.22;;;8.60;99.90;;;;;;10391170;28;87536;-48
2021/12/14 07:37:43;;;;;;;13.75;6.97;;;8.60;99.90;;;;;;10407277;28;84871;-45
2021/12/14 07:42:44;;;;;;;13.18;7.00;;;8.60;99.90;;;;;;10405994;28;84894;-45
2021/12/14 07:47:52;;;;;;;17.20;8.02;;;8.70;99.90;;;;;;10406910;28;85009;-45
2021/12/14 07:52:52;;;;;;;15.65;7.88;;;8.70;99.90;;;;;;10411549;28;84997;-47
2021/12/14 07:57:53;;;;;;;18.30;8.13;;;8.60;99.90;;;;;;10413815;28;84038;-50
2021/12/14 08:02:56;;;;;;;18.92;8.80;;;8.60;99.90;;;;;;10413897;28;84012;-48
2021/12/14 08:08:31;;;;;;;19.45;8.70;;;8.60;99.90;;;;;;10419284;22;84046;-53
2021/12/14 08:13:32;;;;;;;20.23;8.65;;;8.60;99.90;;;;;;10372677;28;84109;-51
2021/12/14 08:18:36;;;;;;;18.85;8.18;;;8.60;99.90;;;;;;10372457;28;85001;-54
2021/12/14 08:23:48;;;;;;;20.88;9.20;;;8.50;99.90;;;;;;10370500;28;86928;-50
2021/12/14 08:28:51;;;;;;;18.60;8.77;;;8.60;99.90;;;;;;10370143;28;86104;-52
2021/12/14 08:33:57;;;;;;;18.38;9.00;;;8.70;99.90;;;;;;10372682;28;84102;-53
2021/12/14 08:39:05;;;;;;;17.60;8.75;;;8.60;99.90;;;;;;10372262;28;84994;-52
2021/12/14 08:44:11;;;;;;;17.85;8.57;;;8.50;99.90;;;;;;10372309;28;84735;-49
2021/12/14 08:49:15;;;;;;;20.50;8.93;;;8.60;99.90;;;;;;10369854;28;85102;-52
2021/12/14 08:54:28;;;;;;;22.35;8.68;;;8.60;99.90;;;;;;10370303;28;84813;-52
2021/12/14 08:59:29;;;;;;;18.63;8.95;;;8.70;99.90;;;;;;10371571;28;84270;-49
2021/12/14 09:04:35;;;;;;;19.30;8.15;;;8.70;99.90;;;;;;10371376;28;85063;-51
2021/12/14 09:09:37;;;;;;;20.00;8.70;;;8.70;99.90;;;;;;10370697;28;84260;-50
2021/12/14 09:14:41;;;;;;;18.88;9.80;;;8.80;99.90;;;;;;10370699;28;85008;-51
2021/12/14 09:19:56;;;;;;;17.17;8.80;;;8.80;99.90;;;;;;10370901;28;84013;-51
2021/12/14 09:24:57;;;;;;;21.85;8.93;;;8.80;99.90;;;;;;10372104;28;84395;-49
2021/12/14 09:29:58;;;;;;;21.67;9.55;;;9.00;99.90;;;;;;10370215;28;84732;-51
2021/12/14 09:35:09;;;;;;;20.77;8.50;;;9.00;99.90;;;;;;10371593;28;84766;-52
2021/12/14 09:40:15;;;;;;;20.30;8.68;;;9.10;99.90;;;;;;10370464;28;85018;-51
2021/12/14 09:45:21;;;;;;;20.98;9.27;;;9.00;99.90;;;;;;10370251;28;84147;-54
2021/12/14 09:50:31;;;;;;;21.00;10.07;;;9.10;99.90;;;;;;10370238;28;84848;-53
2021/12/14 09:55:40;;;;;;;21.67;10.63;;;9.20;99.90;;;;;;10369721;28;84134;-49
2021/12/14 10:00:43;;;;;;;21.35;9.10;;;9.30;99.90;;;;;;10369508;28;85358;-50
2021/12/14 10:05:57;;;;;;;19.60;9.07;;;9.30;99.90;;;;;;10368546;28;84010;-53
2021/12/14 10:11:08;;;;;;;21.52;9.45;;;9.20;99.90;;;;;;10367305;28;85973;-49
2021/12/14 10:16:09;;;;;;;20.45;9.85;;;9.40;99.90;;;;;;10367777;28;84085;-50
2021/12/14 10:21:27;;;;;;;21.95;9.52;;;9.40;99.90;;;;;;10368320;28;84198;-52
2021/12/14 10:26:32;;;;;;;21.88;9.65;;;9.50;99.90;;;;;;10368090;28;84614;-52
2021/12/14 10:31:41;;;;;;;22.45;10.23;;;9.50;99.90;;;;;;10367098;28;84911;-52
2021/12/14 10:36:46;;;;;;;22.83;9.70;;;9.60;99.90;;;;;;10368513;28;84021;-51
2021/12/14 10:47:18;;;;;;;26.60;10.27;;;9.60;99.90;;;;;;10368215;28;84926;-51
2021/12/14 10:52:23;;;;;;;22.42;10.38;;;9.70;99.90;;;;;;10368742;28;84265;-49
2021/12/14 10:57:28;;;;;;;20.73;10.23;;;9.70;99.90;;;;;;10367370;28;84111;-49
2021/12/14 11:02:29;;;;;;;20.75;9.63;;;9.80;99.90;;;;;;10367322;28;84902;-53
2021/12/14 11:07:42;;;;;;;21.98;9.98;;;9.90;99.90;;;;;;10366359;28;84084;-55
2021/12/14 11:12:48;;;;;;;21.42;10.10;;;9.80;99.90;;;;;;10367671;28;84071;-53
2021/12/14 11:18:08;;;;;;;23.15;10.25;;;9.80;99.90;;;;;;10367317;28;85051;-52
2021/12/14 11:23:15;;;;;;;24.52;10.45;;;9.80;99.90;;;;;;10367009;28;84849;-51
2021/12/14 11:28:24;;;;;;;20.30;9.55;;;10.00;99.90;;;;;;10373450;28;84099;-53
2021/12/14 11:33:29;;;;;;;25.50;10.90;;;9.80;99.90;;;;;;10375193;28;84826;-49
2021/12/14 11:38:39;;;;;;;25.73;11.20;;;9.70;99.90;;;;;;10374611;28;84995;-52
2021/12/14 11:43:48;;;;;;;23.55;10.05;;;9.80;99.90;;;;;;10373648;28;84206;-50
2021/12/14 11:48:49;;;;;;;22.55;10.32;;;9.90;99.90;;;;;;10373482;28;84901;-53
2021/12/14 11:53:52;;;;;;;22.80;10.10;;;9.80;99.90;;;;;;10374281;28;84217;-51
2021/12/14 11:58:56;;;;;;;28.02;11.88;;;9.80;99.90;;;;;;10373213;28;85037;-50
2021/12/14 12:04:00;;;;;;;26.80;11.15;;;9.80;99.90;;;;;;10373067;28;85074;-52
2021/12/14 12:15:02;;;;;;;23.45;10.60;;;9.90;99.90;;;;;;10327390;28;85317;-55
2021/12/14 12:20:21;;;;;;;24.48;10.57;;;9.90;99.90;;;;;;10376883;28;83979;-53
2021/12/14 12:25:26;;;;;;;25.88;10.88;;;9.90;99.90;;;;;;10375196;28;85053;-49
2021/12/14 12:30:39;;;;;;;22.88;10.20;;;9.90;99.90;;;;;;10372095;28;86103;-54
2021/12/14 12:35:49;;;;;;;24.80;10.52;;;9.90;99.90;;;;;;10373616;28;86862;-52
2021/12/14 12:41:29;;;;;;;23.75;10.73;;;9.90;99.90;;;;;;10374335;28;84460;-51
2021/12/14 12:46:47;;;;;;;26.63;11.13;;;9.90;99.90;;;;;;10372234;28;85420;-54
2021/12/14 12:52:14;;;;;;;26.15;10.80;;;10.00;99.90;;;;;;10372992;28;84126;-55
2021/12/14 12:57:23;;;;;;;22.75;10.50;;;10.00;99.90;;;;;;10371029;28;84747;-54
2021/12/14 13:02:30;;;;;;;31.30;12.10;;;10.00;99.90;;;;;;10373319;28;84053;-49
2021/12/14 13:07:38;;;;;;;23.95;10.93;;;9.90;99.90;;;;;;10370553;28;84147;-56
2021/12/14 13:12:44;;;;;;;31.52;11.30;;;9.90;99.90;;;;;;10373142;28;84332;-54
2021/12/14 13:17:45;;;;;;;29.35;11.32;;;10.00;99.90;;;;;;10372098;28;84871;-54
2021/12/14 13:22:47;;;;;;;25.33;11.55;;;10.00;99.90;;;;;;10371274;28;85819;-51
2021/12/14 13:27:48;;;;;;;29.92;11.75;;;10.20;99.90;;;;;;10371727;28;84234;-52
2021/12/14 13:32:50;;;;;;;30.80;11.98;;;10.10;99.90;;;;;;10371910;28;84124;-51
2021/12/14 13:38:06;;;;;;;28.50;12.38;;;10.00;99.90;;;;;;10372062;28;84966;-51
2021/12/14 13:43:21;;;;;;;30.13;11.50;;;9.90;99.90;;;;;;10371962;28;84074;-52
2021/12/14 13:48:25;;;;;;;27.63;11.88;;;10.00;99.90;;;;;;10370470;28;84207;-52
2021/12/14 13:53:26;;;;;;;24.98;10.63;;;10.00;99.90;;;;;;10371229;28;85061;-50
2021/12/14 13:58:30;;;;;;;24.83;10.52;;;10.00;99.90;;;;;;10370763;28;84765;-48
2021/12/14 14:03:35;;;;;;;25.20;10.88;;;10.00;99.90;;;;;;10371064;28;85152;-51
2021/12/14 14:08:45;;;;;;;26.60;11.20;;;10.00;99.90;;;;;;10371366;28;85023;-54
2021/12/14 14:13:48;;;;;;;25.25;10.80;;;9.90;99.90;;;;;;10370902;28;84041;-52
2021/12/14 14:18:52;;;;;;;28.23;11.48;;;9.90;99.90;;;;;;10370630;28;84914;-52
2021/12/14 14:23:52;;;;;;;26.30;11.30;;;10.00;99.90;;;;;;10370684;28;84989;-52
2021/12/14 14:29:06;;;;;;;23.92;10.70;;;9.70;99.90;;;;;;10369500;28;83996;-49
2021/12/14 14:34:26;;;;;;;24.88;11.45;;;9.80;99.90;;;;;;10369425;28;84983;-52
2021/12/14 14:39:39;;;;;;;25.63;11.25;;;9.80;99.90;;;;;;10367835;28;84199;-53
2021/12/14 14:44:43;;;;;;;25.88;11.95;;;9.60;99.90;;;;;;10369821;28;84049;-53
2021/12/14 14:49:44;;;;;;;20.48;10.10;;;9.50;99.90;;;;;;10368646;28;84088;-50
2021/12/14 14:55:11;;;;;;;26.27;11.05;;;9.50;99.90;;;;;;10369223;28;84082;-51
2021/12/14 15:00:16;;;;;;;24.30;10.48;;;9.60;99.90;;;;;;10367903;28;84881;-52
2021/12/14 15:05:38;;;;;;;27.58;11.25;;;9.40;99.90;;;;;;10368910;28;84936;-53
2021/12/14 15:10:52;;;;;;;23.77;9.98;;;9.30;99.90;;;;;;10367258;28;84829;-49
2021/12/14 15:16:04;;;;;;;26.73;10.88;;;9.20;99.90;;;;;;10368787;28;84020;-52
2021/12/14 15:21:25;;;;;;;22.77;9.50;;;9.20;99.90;;;;;;10369208;28;84097;-52
2021/12/14 15:26:26;;;;;;;26.23;10.30;;;9.20;99.90;;;;;;10368414;28;84195;-53
2021/12/14 15:31:26;;;;;;;24.35;9.95;;;9.20;99.90;;;;;;10368426;28;84208;-48
2021/12/14 15:36:27;;;;;;;25.20;9.93;;;9.20;99.90;;;;;;10367841;28;84114;-48
2021/12/14 15:41:34;;;;;;;27.23;10.82;;;9.30;99.90;;;;;;10367074;28;85262;-53
2021/12/14 15:46:37;;;;;;;26.92;11.13;;;9.20;99.90;;;;;;10367968;28;84039;-52
2021/12/14 15:51:40;;;;;;;26.70;11.90;;;9.10;99.90;;;;;;10367614;28;84712;-51
2021/12/14 15:56:46;;;;;;;24.02;12.07;;;9.00;99.90;;;;;;10367416;28;84831;-53
2021/12/14 16:02:21;;;;;;;33.08;12.90;;;9.00;99.90;;;;;;10367677;28;84181;-50
2021/12/14 16:07:25;;;;;;;28.27;12.55;;;9.00;99.90;;;;;;10366491;28;84949;-54
2021/12/14 16:17:28;;;;;;;27.90;12.02;;;9.00;99.90;;;;;;10374086;28;85056;-51
2021/12/14 16:22:35;;;;;;;35.70;13.80;;;9.00;99.90;;;;;;10374731;28;84781;-55
2021/12/14 16:27:38;;;;;;;34.22;14.85;;;8.90;99.90;;;;;;10373773;28;84123;-52
2021/12/14 16:32:39;;;;;;;39.67;16.35;;;8.90;99.90;;;;;;10374070;28;84827;-51
2021/12/14 16:37:40;;;;;;;41.13;16.70;;;8.90;99.90;;;;;;10373349;28;84846;-53
2021/12/14 16:42:41;;;;;;;41.58;16.83;;;8.80;99.90;;;;;;10374311;28;84119;-51
2021/12/14 16:47:48;;;;;;;46.38;17.65;;;8.80;99.90;;;;;;10373443;28;84915;-54
2021/12/14 16:52:49;;;;;;;58.55;19.85;;;8.90;99.90;;;;;;10373710;28;84944;-53
2021/12/14 16:57:52;;;;;;;52.20;19.33;;;8.90;99.90;;;;;;10365388;28;84817;-54
2021/12/14 17:02:54;;;;;;;50.42;19.42;;;8.90;99.90;;;;;;10381982;28;84426;-52
2021/12/14 17:07:59;;;;;;;48.50;19.42;;;8.90;99.90;;;;;;10369544;28;85319;-52
2021/12/14 17:13:08;;;;;;;48.80;18.23;;;8.90;99.90;;;;;;10350179;28;84203;-51
2021/12/14 17:18:33;;;;;;;46.85;17.75;;;8.80;99.90;;;;;;10367605;28;84679;-50
2021/12/14 17:23:37;;;;;;;44.45;17.60;;;8.80;99.90;;;;;;10359094;28;84496;-54
2021/12/14 17:28:40;;;;;;;46.72;17.63;;;8.80;99.90;;;;;;10367312;28;84888;-51
2021/12/14 17:33:42;;;;;;;44.30;18.67;;;8.90;99.90;;;;;;10368532;28;84947;-53
2021/12/14 17:38:44;;;;;;;50.78;17.98;;;8.80;99.90;;;;;;10375719;28;85696;-55
2021/12/14 17:43:48;;;;;;;42.30;17.48;;;8.90;99.90;;;;;;10377431;28;84219;-50
2021/12/14 17:48:48;;;;;;;49.92;19.83;;;8.90;99.90;;;;;;10400551;28;84137;-52
2021/12/14 17:53:49;;;;;;;44.83;17.85;;;8.90;99.90;;;;;;10377110;28;85429;-49
2021/12/14 17:58:52;;;;;;;41.10;16.65;;;8.90;99.90;;;;;;10368901;28;84910;-54
2021/12/14 18:03:57;;;;;;;44.42;16.92;;;8.90;99.90;;;;;;10371460;28;84836;-52
2021/12/14 18:09:07;;;;;;;36.33;14.07;;;9.00;99.90;;;;;;10367183;28;85066;-51
2021/12/14 18:14:17;;;;;;;36.80;15.52;;;9.00;99.90;;;;;;10365251;28;84959;-50
2021/12/14 18:19:21;;;;;;;36.70;14.18;;;9.00;99.90;;;;;;10404579;28;84978;-53
2021/12/14 18:24:36;;;;;;;43.10;15.13;;;9.00;99.90;;;;;;10340459;28;86903;-52
2021/12/14 18:29:38;;;;;;;33.67;13.13;;;9.10;99.90;;;;;;10369133;28;84095;-54
2021/12/14 18:34:42;;;;;;;33.95;14.43;;;9.00;99.90;;;;;;10369576;28;84170;-48
2021/12/14 18:39:55;;;;;;;31.83;12.90;;;9.00;99.90;;;;;;10367587;28;87064;-55
2021/12/14 18:45:01;;;;;;;37.17;13.63;;;9.00;99.90;;;;;;10369318;28;85056;-54
2021/12/14 18:50:04;;;;;;;34.03;13.18;;;9.00;99.90;;;;;;10360017;28;84338;-55
2021/12/14 18:55:13;;;;;;;31.92;12.68;;;9.10;99.90;;;;;;10363412;28;84963;-53
2021/12/14 19:00:18;;;;;;;31.05;13.25;;;9.10;99.90;;;;;;10366241;28;84283;-51
2021/12/14 19:05:28;;;;;;;33.90;13.15;;;9.10;99.90;;;;;;10363684;28;84255;-54
2021/12/14 19:10:38;;;;;;;32.58;12.68;;;9.00;99.90;;;;;;10362157;28;87093;-58
2021/12/14 19:15:39;;;;;;;31.17;12.30;;;9.00;99.90;;;;;;10364866;28;84173;-50
2021/12/14 19:20:50;;;;;;;33.80;13.35;;;9.00;99.90;;;;;;10381483;28;84017;-50
2021/12/14 19:25:50;;;;;;;33.58;14.23;;;9.00;99.90;;;;;;10350377;28;84373;-52
2021/12/14 19:30:56;;;;;;;34.25;14.27;;;9.00;99.90;;;;;;10340974;28;84360;-50
2021/12/14 19:35:57;;;;;;;42.50;14.50;;;9.00;99.90;;;;;;10336044;28;84873;-49
2021/12/14 19:41:08;;;;;;;34.00;12.65;;;9.10;99.90;;;;;;10338487;28;85057;-52
2021/12/14 19:46:21;;;;;;;37.10;14.48;;;9.00;99.90;;;;;;10343536;28;84246;-55
2021/12/14 19:51:28;;;;;;;39.30;14.02;;;9.00;99.90;;;;;;10361597;28;84264;-51
2021/12/14 19:56:29;;;;;;;40.13;15.70;;;9.10;99.90;;;;;;10366653;28;85796;-48
2021/12/14 20:01:33;;;;;;;39.10;15.18;;;9.10;99.90;;;;;;10359031;28;84397;-51
2021/12/14 20:06:41;;;;;;;43.28;15.38;;;9.20;99.90;;;;;;10349040;28;84373;-50
2021/12/14 20:11:47;;;;;;;39.67;13.70;;;9.10;99.90;;;;;;10388702;22;85198;-45
2021/12/14 20:16:50;;;;;;;42.35;15.23;;;9.20;99.90;;;;;;10368615;28;84940;-46
2021/12/14 20:21:52;;;;;;;34.97;14.90;;;9.20;99.90;;;;;;10369679;28;84876;-52
2021/12/14 20:26:58;;;;;;;41.13;15.52;;;9.20;99.90;;;;;;10369870;28;84267;-47
2021/12/14 20:32:08;;;;;;;46.15;16.02;;;9.20;99.90;;;;;;10374854;28;85076;-47
2021/12/14 20:37:11;;;;;;;42.20;14.65;;;9.20;99.90;;;;;;10369900;28;85092;-44
2021/12/14 20:42:27;;;;;;;44.53;15.02;;;9.20;99.90;;;;;;10371492;28;84966;-48
2021/12/14 20:47:35;;;;;;;39.55;15.75;;;9.20;99.90;;;;;;10371157;28;84731;-47
2021/12/14 20:52:36;;;;;;;51.20;18.30;;;9.20;99.90;;;;;;10370609;28;85223;-49
2021/12/14 20:57:45;;;;;;;43.05;15.38;;;9.30;99.90;;;;;;10370689;28;84956;-45
2021/12/14 21:02:48;;;;;;;45.08;15.32;;;9.30;99.90;;;;;;10371036;28;84620;-47
2021/12/14 21:07:49;;;;;;;57.10;18.85;;;9.30;99.90;;;;;;10369468;28;84341;-45
2021/12/14 21:12:54;;;;;;;39.05;15.32;;;9.20;99.90;;;;;;10369334;28;85088;-49
2021/12/14 21:18:02;;;;;;;40.45;15.45;;;9.20;99.90;;;;;;10369933;28;84958;-45
2021/12/14 21:23:07;;;;;;;43.80;15.85;;;9.30;99.90;;;;;;10370673;28;84987;-46
2021/12/14 21:28:11;;;;;;;44.92;16.70;;;9.30;99.90;;;;;;10368386;28;85323;-46
2021/12/14 21:33:20;;;;;;;43.40;15.27;;;9.40;99.90;;;;;;10370737;28;84807;-46
2021/12/14 21:38:27;;;;;;;39.95;15.25;;;9.30;99.90;;;;;;10370478;28;84348;-51
2021/12/14 21:48:49;;;;;;;31.17;13.68;;;9.40;99.90;;;;;;10369853;28;84622;-48
2021/12/14 21:53:51;;;;;;;36.75;13.80;;;9.40;99.90;;;;;;10370803;28;84066;-46
2021/12/14 21:58:54;;;;;;;36.35;14.77;;;9.40;99.90;;;;;;10368340;28;85128;-45
2021/12/14 22:03:55;;;;;;;31.55;13.98;;;9.40;99.90;;;;;;10370501;28;84964;-51
2021/12/14 22:08:56;;;;;;;38.97;14.73;;;9.40;99.90;;;;;;10368507;28;85001;-47
2021/12/14 22:14:06;;;;;;;37.83;14.57;;;9.40;99.90;;;;;;10368142;28;85124;-48
2021/12/14 22:19:10;;;;;;;44.78;14.02;;;9.50;99.90;;;;;;10368743;28;85325;-45
2021/12/14 22:24:12;;;;;;;38.63;14.15;;;9.40;99.90;;;;;;10369399;28;85036;-45
2021/12/14 22:29:13;;;;;;;35.55;13.32;;;9.30;99.90;;;;;;10368269;28;84102;-46
2021/12/14 22:34:13;;;;;;;34.20;15.88;;;9.40;99.90;;;;;;10368717;28;84858;-45
2021/12/14 22:39:16;;;;;;;31.88;13.00;;;9.40;99.90;;;;;;10368067;28;83992;-50
2021/12/14 22:44:18;;;;;;;36.28;13.45;;;9.40;99.90;;;;;;10367875;28;85085;-42
2021/12/14 22:49:31;;;;;;;33.15;13.73;;;9.40;99.90;;;;;;10367568;28;86471;-48
2021/12/14 22:54:32;;;;;;;39.55;14.70;;;9.40;99.90;;;;;;10367983;28;84941;-46
2021/12/14 22:59:33;;;;;;;32.85;13.45;;;9.40;99.90;;;;;;10367327;28;84748;-45
2021/12/14 23:04:34;;;;;;;31.08;12.85;;;9.40;99.90;;;;;;10367507;28;84769;-47
2021/12/14 23:09:53;;;;;;;33.80;13.07;;;9.50;99.90;;;;;;10365412;28;86727;-47
2021/12/14 23:14:59;;;;;;;30.20;12.43;;;9.50;99.90;;;;;;10368029;28;84935;-48
2021/12/14 23:20:08;;;;;;;32.78;12.52;;;9.50;99.90;;;;;;10367749;28;84413;-46
2021/12/14 23:25:12;;;;;;;31.90;12.35;;;9.40;99.90;;;;;;10367529;28;84643;-49
2021/12/14 23:30:16;;;;;;;27.35;12.13;;;9.40;99.90;;;;;;10365333;28;84041;-50
2021/12/14 23:35:19;;;;;;;26.58;11.45;;;9.40;99.90;;;;;;10366849;28;84973;-47
2021/12/14 23:40:24;;;;;;;26.80;10.73;;;9.40;99.90;;;;;;10366902;28;84698;-47
2021/12/14 23:45:35;;;;;;;23.13;10.70;;;9.50;99.90;;;;;;10367124;28;83949;-46
2021/12/14 23:50:39;;;;;;;27.25;10.90;;;9.50;99.90;;;;;;10366732;28;84982;-48
2021/12/14 23:55:41;;;;;;;27.60;10.70;;;9.50;99.90;;;;;;10364996;28;85009;-47
